createdAt,value
2023-03-23T15:58:35.603Z,14.40
2023-03-23T16:01:08.369Z,14.50
2023-03-23T16:03:38.999Z,14.50
2023-03-23T16:06:06.199Z,14.40
2023-03-23T16:08:33.177Z,14.50
2023-03-23T16:11:00.316Z,14.40
2023-03-23T16:13:28.061Z,14.40
2023-03-23T16:15:55.006Z,14.40
2023-03-23T16:18:22.269Z,14.40
2023-03-23T16:20:49.770Z,14.40
2023-03-23T16:23:16.847Z,14.40
2023-03-23T16:25:44.420Z,14.40
2023-03-23T16:28:12.531Z,14.30
2023-03-23T16:30:39.985Z,14.50
2023-03-23T16:33:07.055Z,14.40
2023-03-23T16:35:34.329Z,14.50
2023-03-23T16:38:07.809Z,14.40
2023-03-23T16:40:38.915Z,14.40
2023-03-23T16:43:09.084Z,14.60
2023-03-23T16:45:43.816Z,14.60
2023-03-23T16:48:11.527Z,14.80
2023-03-23T16:50:38.424Z,14.70
2023-03-23T16:53:06.703Z,14.60
2023-03-23T16:55:34.080Z,14.50
2023-03-23T16:58:15.418Z,14.60
2023-03-23T17:00:44.154Z,14.40
2023-03-23T17:03:11.362Z,14.30
2023-03-23T17:05:38.580Z,14.20
2023-03-23T17:08:06.005Z,14.30
2023-03-23T17:10:33.429Z,14.20
2023-03-23T17:13:00.355Z,14.20
2023-03-23T17:15:27.310Z,13.90
2023-03-23T17:17:55.378Z,13.90
2023-03-23T17:20:23.192Z,13.70
2023-03-23T17:22:50.393Z,13.60
2023-03-23T17:25:17.344Z,13.40
2023-03-23T17:27:44.266Z,13.40
2023-03-23T17:30:11.606Z,13.20
2023-03-23T17:32:38.444Z,13.30
2023-03-23T17:35:05.771Z,13.30
2023-03-23T17:37:32.703Z,13.20
2023-03-23T17:39:59.572Z,13.20
2023-03-23T17:42:27.070Z,13.10
2023-03-23T17:44:54.098Z,13.20
2023-03-23T17:47:21.009Z,13.10
2023-03-23T17:49:48.096Z,13.10
2023-03-23T17:52:14.940Z,13.00
2023-03-23T17:54:42.150Z,13.00
2023-03-23T17:57:09.173Z,12.90
2023-03-23T17:59:36.181Z,12.90
2023-03-23T18:02:03.136Z,12.80
2023-03-23T18:04:30.173Z,12.70
2023-03-23T18:06:57.581Z,12.70
2023-03-23T18:09:25.259Z,12.80
2023-03-23T18:11:52.574Z,12.90
2023-03-23T18:14:19.978Z,12.90
2023-03-23T18:16:47.051Z,12.90
2023-03-23T18:19:13.972Z,12.80
2023-03-23T18:21:40.876Z,13.00
2023-03-23T18:24:08.074Z,13.00
2023-03-23T18:26:35.365Z,13.00
2023-03-23T18:29:02.213Z,13.00
2023-03-23T18:31:29.244Z,13.20
2023-03-23T18:33:56.193Z,13.10
2023-03-23T18:36:24.909Z,13.10
2023-03-23T18:38:54.237Z,13.20
2023-03-23T18:41:21.152Z,13.20
2023-03-23T18:43:48.058Z,13.10
2023-03-23T18:46:15.008Z,13.10
2023-03-23T18:48:41.937Z,13.20
2023-03-23T18:51:09.550Z,13.10
2023-03-23T18:53:36.372Z,13.00
2023-03-23T18:56:13.244Z,13.00
2023-03-23T18:58:40.278Z,13.00
2023-03-23T19:01:08.719Z,13.00
2023-03-23T19:03:36.291Z,13.00
2023-03-23T19:06:04.481Z,13.00
2023-03-23T19:08:32.028Z,13.10
2023-03-23T19:11:01.098Z,13.00
2023-03-23T19:13:29.075Z,13.00
2023-03-23T19:15:56.030Z,13.00
2023-03-23T19:18:23.224Z,13.10
2023-03-23T19:23:21.708Z,13.00
2023-03-23T19:25:48.963Z,13.00
2023-03-23T19:30:46.841Z,13.20
2023-03-23T19:33:14.308Z,13.20
2023-03-23T19:35:41.274Z,13.00
2023-03-23T19:38:08.505Z,13.00
2023-03-23T19:40:42.141Z,13.00
2023-03-23T19:43:10.655Z,13.10
2023-03-23T19:45:37.854Z,13.20
2023-03-23T19:48:05.744Z,13.20
2023-03-23T19:50:35.216Z,13.20
2023-03-23T19:53:02.052Z,13.10
2023-03-23T19:55:29.002Z,13.30
2023-03-23T19:57:55.850Z,13.40
2023-03-23T20:00:24.495Z,13.50
2023-03-23T20:02:51.889Z,13.50
2023-03-23T20:05:18.876Z,13.50
2023-03-23T20:07:51.533Z,13.50
2023-03-23T20:10:18.833Z,13.50
2023-03-23T20:12:45.714Z,13.70
2023-03-23T20:15:12.851Z,13.80
2023-03-23T20:17:40.047Z,13.80
2023-03-23T20:20:10.273Z,13.80
2023-03-23T20:22:37.594Z,13.70
2023-03-23T20:25:04.865Z,13.60
2023-03-23T20:27:32.363Z,13.80
2023-03-23T20:29:59.306Z,13.80
2023-03-23T20:32:26.269Z,13.80
2023-03-23T20:34:53.264Z,13.80
2023-03-23T20:37:20.583Z,13.70
2023-03-23T20:39:48.741Z,13.80
2023-03-23T20:42:16.964Z,13.70
2023-03-23T20:44:43.986Z,13.70
2023-03-23T20:47:10.892Z,13.70
2023-03-23T20:49:38.562Z,13.70
2023-03-23T20:52:06.886Z,13.60
2023-03-23T20:54:33.844Z,13.60
2023-03-23T20:57:01.283Z,13.60
2023-03-23T20:59:28.525Z,13.70
2023-03-23T21:01:55.443Z,13.70
2023-03-23T21:04:23.478Z,13.70
2023-03-23T21:06:51.817Z,13.80
2023-03-23T21:09:19.433Z,13.80
2023-03-23T21:11:46.664Z,13.70
2023-03-23T21:14:13.718Z,13.60
2023-03-23T21:16:41.429Z,13.70
2023-03-23T21:19:09.121Z,13.70
2023-03-23T21:21:36.168Z,13.60
2023-03-23T21:24:03.213Z,13.60
2023-03-23T21:26:30.367Z,13.60
2023-03-23T21:29:00.577Z,13.70
2023-03-23T21:31:30.622Z,13.80
2023-03-23T21:33:58.536Z,13.90
2023-03-23T21:36:26.736Z,13.90
2023-03-23T21:38:54.042Z,13.70
2023-03-23T21:41:20.902Z,13.60
2023-03-23T21:43:47.736Z,13.30
2023-03-23T21:46:18.215Z,13.30
2023-03-23T21:48:46.098Z,13.20
2023-03-23T21:51:14.055Z,13.10
2023-03-23T21:53:42.354Z,13.20
2023-03-23T21:56:10.145Z,13.20
2023-03-23T21:58:37.213Z,13.20
2023-03-23T22:01:05.318Z,13.30
2023-03-23T22:03:33.006Z,13.40
2023-03-23T22:06:05.588Z,13.50
2023-03-23T22:08:32.971Z,13.40
2023-03-23T22:11:01.865Z,13.40
2023-03-23T22:13:30.546Z,13.40
2023-03-23T22:15:58.859Z,13.30
2023-03-23T22:18:26.087Z,13.20
2023-03-23T22:20:53.367Z,13.20
2023-03-23T22:23:20.761Z,13.10
2023-03-23T22:25:47.833Z,12.90
2023-03-23T22:28:14.890Z,12.70
2023-03-23T22:30:41.828Z,12.60
2023-03-23T22:33:08.778Z,12.60
2023-03-23T22:35:36.003Z,12.50
2023-03-23T22:38:03.315Z,12.40
2023-03-23T22:40:30.976Z,12.40
2023-03-23T22:42:57.964Z,12.30
2023-03-23T22:45:26.143Z,12.30
2023-03-23T22:47:53.308Z,12.30
2023-03-23T22:50:21.627Z,12.10
2023-03-23T22:52:48.547Z,12.00
2023-03-23T22:55:15.743Z,12.00
2023-03-23T22:57:42.837Z,12.00
2023-03-23T23:00:14.757Z,12.00
2023-03-23T23:02:42.611Z,11.90
2023-03-23T23:05:10.284Z,11.90
2023-03-23T23:07:37.205Z,11.90
2023-03-23T23:10:04.498Z,11.90
2023-03-23T23:12:31.759Z,11.90
2023-03-23T23:14:58.854Z,11.90
2023-03-23T23:17:26.592Z,12.00
2023-03-23T23:19:53.500Z,12.20
2023-03-23T23:22:20.518Z,12.40
2023-03-23T23:24:47.432Z,12.30
2023-03-23T23:27:14.589Z,12.20
2023-03-23T23:29:41.614Z,12.20
2023-03-23T23:32:08.524Z,12.20
2023-03-23T23:34:35.997Z,12.30
2023-03-23T23:37:02.855Z,12.30
2023-03-23T23:39:30.474Z,12.30
2023-03-23T23:41:57.361Z,12.30
2023-03-23T23:44:24.373Z,12.40
2023-03-23T23:46:51.447Z,12.30
2023-03-23T23:49:18.323Z,12.30
2023-03-23T23:51:45.868Z,12.20
2023-03-23T23:54:14.668Z,12.10
2023-03-23T23:56:41.811Z,12.00
2023-03-23T23:59:08.899Z,12.00
